Airfield :
LOGIN :

Register | Disclaimer

   EN    FR    IT 

 










Legend :    VFR   Marginal VFR   IFR   Intensive IFR   Very Intensive IFR
Visi :
Ceiling :
>= 8 km
>= 3000ft
5 to 8 km
1000 to 3000 ft
1500m to 5 km
500 to 1000 ft
800 to 1500m
200 to 500 ft
< 800m
< 200 ft
Symbols :   Thunderstorms  Fog  Heavy snow  Heavy precipitations  Wind > 20 kt
SIGMETs :     Misc.  Thunderstorms  Icing  Turbulence  Mountain Waves  Volcanic Ashes






- Airport Elevation : 794 ft


LKCV - Čáslav Air Base

CURRENT METAR :
  • 081000Z 12013KT CAVOK 18/M09 Q1028 NOSIG RMK BLU BLU

EXPIRED METARs :
  • 080930Z 12012KT CAVOK 18/M08 Q1028 NOSIG RMK BLU BLU
  • 080900Z 13013KT CAVOK 17/M08 Q1029 NOSIG RMK BLU BLU
  • 080830Z 07004KT 030V130 CAVOK 15/M03 Q1029 NOSIG RMK BLU BLU
  • 080800Z 04004KT 350V070 CAVOK 13/M02 Q1029 NOSIG RMK BLU BLU
  • 080730Z VRB01KT CAVOK 12/M02 Q1029 NOSIG RMK BLU BLU
  • 080700Z 00000KT CAVOK 09/M02 Q1029 NOSIG RMK BLU BLU

TAF TAF LKCV
Valid from the 08 at 06:00 until the 09 at 06:00 UTC


080500Z 0806/0906 16005KT CAVOK
BECMG 0808/0811 14012KT
TEMPO 0811/0820 15017KT
BECMG 0823/0901 12004KT



MET'MAP, your aeronautical weather chart ! - Copyright ORBIFLY December 2007 - Disclaimer

ORBIFLY MET'MAP TEAM :

Programming & Development : Alexandra Zaïnal
Concept & original design : Baudouin d'Aumeries
Assistance for programming : Marc-Olivier Méhu
Technical & hardware support : Manuel Goepfert

Contact : metmap@orbifly.com




SOURCES & CREDITS :

   NOAA